»·PEaware :: PCM524 KSAN-KIPL

PCM524 :: KSAN-KIPL

FLIGHT INFORMATION

Flight Status: Arrived
Operator: Unknown
More flights by this operator :: More flights under this callsign
Pilot: Max L. (14194)
Aircraft: CESSNA 208 CARAVAN
(C208)
More flights by this aircraft type
Origin: KSAN San Diego Intl-Lindbergh
United States
Destination: KIPL Imperial Co
United States
More flights between these airports :: More routes between these airports
Route: +MZB V66 IPL
File this flight plan on PilotEdge
Remarks:
Altitude:
(Current/Filed)
7,000ft
Speed:
(Current/Filed)
185kts
Departed: 06-Dec-17 03:14 PM
Arrived: 06-Dec-17 04:01 PM
Distance/Time
Traveled:
82nm/0:47
Distance/Time
To Go:
Arrived

Flight Plot

Page will automatically refresh every two minutes.


Map Options




Map Legend


Flown Route
Filed Route
Departure Airport
Arrival Airport
Navaid (VOR, NDB)
Fix

Horizontal Profiles

Position Reports

Time Latitude Longitude Heading Altitude Ground
Speed
06-Dec-17 14:41 32.738076 -117.186977 324 21ft 0kts
06-Dec-17 14:42 32.738077 -117.186977 324 21ft 0kts
06-Dec-17 14:43 32.738076 -117.186977 324 21ft 0kts
06-Dec-17 14:44 32.738076 -117.186977 324 21ft 0kts
06-Dec-17 14:46 32.738085 -117.186974 324 21ft 0kts
06-Dec-17 14:47 32.738085 -117.186974 324 21ft 0kts
06-Dec-17 14:48 32.738085 -117.186974 324 21ft 0kts
06-Dec-17 14:49 32.738085 -117.186974 324 21ft 0kts
06-Dec-17 14:50 32.738085 -117.186974 324 21ft 0kts
06-Dec-17 14:54 32.738079 -117.186965 324 21ft 0kts
06-Dec-17 14:55 32.738079 -117.186965 324 21ft 0kts
06-Dec-17 14:56 32.738079 -117.186965 324 21ft 0kts
06-Dec-17 14:57 32.738079 -117.186965 324 21ft 0kts
06-Dec-17 14:58 32.738079 -117.186965 324 21ft 0kts
06-Dec-17 14:59 32.738079 -117.186965 324 21ft 0kts
06-Dec-17 15:00 32.738079 -117.186965 324 21ft 0kts
06-Dec-17 15:01 32.738079 -117.186965 324 21ft 0kts
06-Dec-17 15:02 32.738079 -117.186965 324 21ft 0kts
06-Dec-17 15:03 32.738079 -117.186965 324 21ft 0kts
06-Dec-17 15:04 32.738079 -117.186965 324 21ft 0kts
06-Dec-17 15:05 32.738079 -117.186965 324 21ft 0kts
06-Dec-17 15:06 32.738079 -117.186965 324 21ft 0kts
06-Dec-17 15:07 32.738079 -117.186965 324 21ft 0kts
06-Dec-17 15:08 32.738079 -117.186965 324 21ft 0kts
06-Dec-17 15:09 32.738079 -117.186965 324 21ft 0kts
06-Dec-17 15:10 32.738088 -117.186965 324 21ft 0kts
06-Dec-17 15:11 32.738090 -117.186967 325 21ft 0kts
06-Dec-17 15:12 32.735895 -117.185110 145 21ft 23kts
06-Dec-17 15:13 32.732597 -117.180993 104 19ft 24kts
06-Dec-17 15:14 32.730954 -117.175425 139 28ft 0kts
06-Dec-17 15:15 32.730953 -117.175425 139 28ft 0kts
06-Dec-17 15:16 32.730953 -117.175425 139 28ft 0kts
06-Dec-17 15:17 32.730953 -117.175425 139 28ft 0kts
06-Dec-17 15:18 32.730953 -117.175425 139 28ft 0kts
06-Dec-17 15:19 32.732193 -117.184459 287 174ft 86kts
06-Dec-17 15:20 32.741662 -117.206573 316 1403ft 73kts
06-Dec-17 15:21 32.757061 -117.221922 319 2543ft 69kts
06-Dec-17 15:22 32.771567 -117.236905 320 3784ft 81kts
06-Dec-17 15:23 32.791127 -117.258043 321 4956ft 112kts
06-Dec-17 15:24 32.820434 -117.271719 352 6050ft 120kts
06-Dec-17 15:25 32.858889 -117.276364 31 6050ft 147kts
06-Dec-17 15:26 32.858388 -117.231019 104 6130ft 145kts
06-Dec-17 15:27 32.848131 -117.190191 103 7195ft 121kts
06-Dec-17 15:28 32.838456 -117.152868 103 8283ft 116kts
06-Dec-17 15:29 32.828810 -117.116692 103 9341ft 115kts
06-Dec-17 15:30 32.819339 -117.075922 103 8988ft 122kts
06-Dec-17 15:31 32.808566 -117.035330 103 9000ft 136kts
06-Dec-17 15:32 32.797128 -116.991473 103 8999ft 143kts
06-Dec-17 15:34 32.785293 -116.945806 103 8998ft 145kts
06-Dec-17 15:35 32.778505 -116.899380 92 8998ft 143kts
06-Dec-17 15:36 32.776474 -116.852453 89 8950ft 150kts
06-Dec-17 15:37 32.775380 -116.801038 88 8998ft 158kts
06-Dec-17 15:38 32.774459 -116.748595 88 8998ft 161kts
06-Dec-17 15:38 32.773701 -116.704053 88 8998ft 161kts
06-Dec-17 15:40 32.772591 -116.642020 88 8998ft 161kts
06-Dec-17 15:41 32.771638 -116.588536 88 8998ft 161kts
06-Dec-17 15:41 32.770830 -116.544456 88 8998ft 161kts
06-Dec-17 15:42 32.769833 -116.491134 88 8998ft 161kts
06-Dec-17 15:44 32.768675 -116.428687 88 8951ft 162kts
06-Dec-17 15:44 32.767826 -116.384017 88 8952ft 161kts
06-Dec-17 15:45 32.766792 -116.331051 89 8997ft 160kts
06-Dec-17 15:46 32.765745 -116.277944 89 8999ft 161kts
06-Dec-17 15:47 32.764657 -116.224569 89 8999ft 162kts
06-Dec-17 15:48 32.763575 -116.171699 89 9050ft 160kts
06-Dec-17 15:49 32.762846 -116.118391 88 9053ft 161kts
06-Dec-17 15:50 32.761784 -116.065532 89 8608ft 162kts
06-Dec-17 15:51 32.760608 -116.012605 89 7502ft 158kts
06-Dec-17 15:52 32.759433 -115.960571 89 6400ft 157kts
06-Dec-17 15:53 32.759295 -115.908680 83 5299ft 157kts
06-Dec-17 15:54 32.762934 -115.857073 83 4196ft 156kts
06-Dec-17 15:55 32.766421 -115.807531 83 3557ft 132kts
06-Dec-17 15:56 32.769264 -115.767116 82 3565ft 118kts
06-Dec-17 15:57 32.772088 -115.728529 81 3567ft 116kts
06-Dec-17 15:58 32.782780 -115.690845 62 2938ft 125kts
06-Dec-17 15:59 32.798255 -115.656389 60 2597ft 115kts
06-Dec-17 16:00 32.811862 -115.620791 66 2709ft 117kts
06-Dec-17 16:01 32.823920 -115.586340 57 2189ft 99kts
06-Dec-17 16:02 32.839719 -115.560324 51 1183ft 102kts
06-Dec-17 16:03 32.860893 -115.552957 322 701ft 86kts
06-Dec-17 16:04 32.858927 -115.576917 240 529ft 79kts
06-Dec-17 16:05 32.839972 -115.577726 152 -43ft 73kts
06-Dec-17 16:06 32.835185 -115.573976 58 -45ft 0kts
06-Dec-17 16:07 32.838561 -115.573284 332 -45ft 19kts
06-Dec-17 16:08 32.839657 -115.573887 90 -45ft 0kts

Navigation Log

Ident Type
1. KSAN Airport
2. MZB Navaid
3. HAILE Fix
4. RYAHH Fix
5. BARET Fix
6. CANNO Fix
7. PILLO Fix
8. GREED Fix
9. KUMBA Fix
10. NICKK Fix
11. IPL Navaid
12. KIPL Airport